sensor_id;sensor_type;location;lat;lon;timestamp;P1;durP1;ratioP1;P2;durP2;ratioP2
27489;SDS011;14925;51.026;13.752;2023-06-10T00:01:40;14.90;;;13.30;;
27489;SDS011;14925;51.026;13.752;2023-06-10T00:04:07;14.98;;;12.13;;
27489;SDS011;14925;51.026;13.752;2023-06-10T00:06:33;15.70;;;13.75;;
27489;SDS011;14925;51.026;13.752;2023-06-10T00:09:02;15.82;;;12.52;;
27489;SDS011;14925;51.026;13.752;2023-06-10T00:11:30;14.80;;;13.15;;
27489;SDS011;14925;51.026;13.752;2023-06-10T00:13:58;21.60;;;15.50;;
27489;SDS011;14925;51.026;13.752;2023-06-10T00:16:24;18.55;;;14.95;;
27489;SDS011;14925;51.026;13.752;2023-06-10T00:18:50;14.45;;;12.95;;
27489;SDS011;14925;51.026;13.752;2023-06-10T00:21:16;15.75;;;14.02;;
27489;SDS011;14925;51.026;13.752;2023-06-10T00:23:42;18.90;;;15.68;;
27489;SDS011;14925;51.026;13.752;2023-06-10T00:26:07;18.25;;;13.73;;
27489;SDS011;14925;51.026;13.752;2023-06-10T00:28:33;16.05;;;13.25;;
27489;SDS011;14925;51.026;13.752;2023-06-10T00:30:58;14.50;;;13.10;;
27489;SDS011;14925;51.026;13.752;2023-06-10T00:33:24;15.07;;;13.38;;
27489;SDS011;14925;51.026;13.752;2023-06-10T00:35:49;16.13;;;13.52;;
27489;SDS011;14925;51.026;13.752;2023-06-10T00:38:15;13.13;;;11.77;;
27489;SDS011;14925;51.026;13.752;2023-06-10T00:40:40;20.65;;;15.02;;
27489;SDS011;14925;51.026;13.752;2023-06-10T00:43:07;17.55;;;14.07;;
27489;SDS011;14925;51.026;13.752;2023-06-10T00:45:32;15.48;;;13.18;;
27489;SDS011;14925;51.026;13.752;2023-06-10T00:47:58;15.75;;;14.13;;
27489;SDS011;14925;51.026;13.752;2023-06-10T00:50:24;21.00;;;14.80;;
27489;SDS011;14925;51.026;13.752;2023-06-10T00:52:50;20.35;;;16.13;;
27489;SDS011;14925;51.026;13.752;2023-06-10T00:55:16;19.85;;;14.55;;
27489;SDS011;14925;51.026;13.752;2023-06-10T00:57:43;17.02;;;12.70;;
27489;SDS011;14925;51.026;13.752;2023-06-10T01:00:09;19.45;;;14.43;;
27489;SDS011;14925;51.026;13.752;2023-06-10T01:02:35;16.33;;;13.85;;
27489;SDS011;14925;51.026;13.752;2023-06-10T01:05:01;14.43;;;12.20;;
27489;SDS011;14925;51.026;13.752;2023-06-10T01:12:49;15.50;;;12.38;;
27489;SDS011;14925;51.026;13.752;2023-06-10T01:15:18;13.85;;;11.52;;
27489;SDS011;14925;51.026;13.752;2023-06-10T01:20:40;12.05;;;10.75;;
27489;SDS011;14925;51.026;13.752;2023-06-10T01:23:08;13.60;;;11.60;;
27489;SDS011;14925;51.026;13.752;2023-06-10T01:25:37;13.63;;;12.23;;
27489;SDS011;14925;51.026;13.752;2023-06-10T01:28:11;12.40;;;10.95;;
27489;SDS011;14925;51.026;13.752;2023-06-10T01:31:13;13.10;;;11.70;;
27489;SDS011;14925;51.026;13.752;2023-06-10T01:33:39;15.85;;;13.50;;
27489;SDS011;14925;51.026;13.752;2023-06-10T01:36:08;17.63;;;13.60;;
27489;SDS011;14925;51.026;13.752;2023-06-10T01:38:36;14.60;;;13.10;;
27489;SDS011;14925;51.026;13.752;2023-06-10T01:41:13;14.95;;;13.43;;
27489;SDS011;14925;51.026;13.752;2023-06-10T01:43:39;15.60;;;12.55;;
27489;SDS011;14925;51.026;13.752;2023-06-10T01:46:05;14.85;;;13.05;;
27489;SDS011;14925;51.026;13.752;2023-06-10T01:48:31;14.82;;;13.32;;
27489;SDS011;14925;51.026;13.752;2023-06-10T01:50:57;12.65;;;11.38;;
27489;SDS011;14925;51.026;13.752;2023-06-10T01:53:23;16.40;;;13.18;;
27489;SDS011;14925;51.026;13.752;2023-06-10T01:55:48;16.88;;;14.48;;
27489;SDS011;14925;51.026;13.752;2023-06-10T01:58:14;17.08;;;14.95;;
27489;SDS011;14925;51.026;13.752;2023-06-10T02:00:39;16.20;;;14.50;;
27489;SDS011;14925;51.026;13.752;2023-06-10T02:03:05;16.80;;;14.88;;
27489;SDS011;14925;51.026;13.752;2023-06-10T02:05:33;20.13;;;16.98;;
27489;SDS011;14925;51.026;13.752;2023-06-10T02:07:58;18.70;;;15.00;;
27489;SDS011;14925;51.026;13.752;2023-06-10T02:10:23;17.83;;;15.32;;
27489;SDS011;14925;51.026;13.752;2023-06-10T02:12:49;19.48;;;15.23;;
27489;SDS011;14925;51.026;13.752;2023-06-10T02:15:15;16.70;;;14.90;;
27489;SDS011;14925;51.026;13.752;2023-06-10T02:17:40;17.45;;;14.13;;
27489;SDS011;14925;51.026;13.752;2023-06-10T02:20:06;20.17;;;16.08;;
27489;SDS011;14925;51.026;13.752;2023-06-10T02:22:32;20.00;;;15.40;;
27489;SDS011;14925;51.026;13.752;2023-06-10T02:24:58;19.63;;;16.60;;
27489;SDS011;14925;51.026;13.752;2023-06-10T02:27:26;18.20;;;16.27;;
27489;SDS011;14925;51.026;13.752;2023-06-10T02:29:52;13.75;;;11.10;;
27489;SDS011;14925;51.026;13.752;2023-06-10T02:32:17;18.13;;;15.15;;
27489;SDS011;14925;51.026;13.752;2023-06-10T02:34:43;16.52;;;14.85;;
27489;SDS011;14925;51.026;13.752;2023-06-10T02:37:09;20.38;;;17.50;;
27489;SDS011;14925;51.026;13.752;2023-06-10T02:39:34;22.15;;;16.67;;
27489;SDS011;14925;51.026;13.752;2023-06-10T02:42:00;21.67;;;19.38;;
27489;SDS011;14925;51.026;13.752;2023-06-10T02:44:25;18.92;;;15.70;;
27489;SDS011;14925;51.026;13.752;2023-06-10T02:46:50;17.55;;;14.85;;
27489;SDS011;14925;51.026;13.752;2023-06-10T02:49:16;19.10;;;15.27;;
27489;SDS011;14925;51.026;13.752;2023-06-10T02:51:41;19.75;;;17.52;;
27489;SDS011;14925;51.026;13.752;2023-06-10T02:54:07;20.17;;;17.92;;
27489;SDS011;14925;51.026;13.752;2023-06-10T02:56:32;19.63;;;17.58;;
27489;SDS011;14925;51.026;13.752;2023-06-10T02:58:58;22.30;;;16.55;;
27489;SDS011;14925;51.026;13.752;2023-06-10T03:01:24;17.80;;;15.48;;
27489;SDS011;14925;51.026;13.752;2023-06-10T03:03:49;19.83;;;17.67;;
27489;SDS011;14925;51.026;13.752;2023-06-10T03:06:15;16.30;;;14.32;;
27489;SDS011;14925;51.026;13.752;2023-06-10T03:08:41;16.55;;;14.30;;
27489;SDS011;14925;51.026;13.752;2023-06-10T03:11:06;14.35;;;12.07;;
27489;SDS011;14925;51.026;13.752;2023-06-10T03:13:32;18.45;;;16.45;;
27489;SDS011;14925;51.026;13.752;2023-06-10T03:15:57;18.48;;;16.58;;
27489;SDS011;14925;51.026;13.752;2023-06-10T03:18:27;17.40;;;15.35;;
27489;SDS011;14925;51.026;13.752;2023-06-10T03:20:52;16.55;;;14.85;;
27489;SDS011;14925;51.026;13.752;2023-06-10T03:23:18;19.02;;;16.27;;
27489;SDS011;14925;51.026;13.752;2023-06-10T03:25:44;18.80;;;16.80;;
27489;SDS011;14925;51.026;13.752;2023-06-10T03:28:10;18.23;;;16.35;;
27489;SDS011;14925;51.026;13.752;2023-06-10T03:30:35;17.48;;;15.65;;
27489;SDS011;14925;51.026;13.752;2023-06-10T03:33:00;20.20;;;15.80;;
27489;SDS011;14925;51.026;13.752;2023-06-10T03:35:26;17.45;;;15.50;;
27489;SDS011;14925;51.026;13.752;2023-06-10T03:37:51;20.58;;;16.95;;
27489;SDS011;14925;51.026;13.752;2023-06-10T03:40:17;19.90;;;15.18;;
27489;SDS011;14925;51.026;13.752;2023-06-10T03:42:42;20.98;;;16.17;;
27489;SDS011;14925;51.026;13.752;2023-06-10T03:45:09;19.98;;;17.77;;
27489;SDS011;14925;51.026;13.752;2023-06-10T03:47:35;18.40;;;16.50;;
27489;SDS011;14925;51.026;13.752;2023-06-10T03:50:01;19.58;;;17.48;;
27489;SDS011;14925;51.026;13.752;2023-06-10T03:52:28;23.00;;;18.63;;
27489;SDS011;14925;51.026;13.752;2023-06-10T03:54:54;19.80;;;16.92;;
27489;SDS011;14925;51.026;13.752;2023-06-10T03:57:19;16.42;;;14.73;;
27489;SDS011;14925;51.026;13.752;2023-06-10T03:59:44;20.55;;;16.35;;
27489;SDS011;14925;51.026;13.752;2023-06-10T04:02:10;19.00;;;16.08;;
27489;SDS011;14925;51.026;13.752;2023-06-10T04:04:35;20.27;;;16.45;;
27489;SDS011;14925;51.026;13.752;2023-06-10T04:07:02;21.70;;;17.95;;
27489;SDS011;14925;51.026;13.752;2023-06-10T04:09:28;20.15;;;17.45;;
27489;SDS011;14925;51.026;13.752;2023-06-10T04:11:53;18.73;;;16.17;;
27489;SDS011;14925;51.026;13.752;2023-06-10T04:14:19;20.33;;;17.95;;
27489;SDS011;14925;51.026;13.752;2023-06-10T04:16:44;19.35;;;16.08;;
27489;SDS011;14925;51.026;13.752;2023-06-10T04:19:10;17.02;;;15.23;;
27489;SDS011;14925;51.026;13.752;2023-06-10T04:21:35;23.50;;;16.70;;
27489;SDS011;14925;51.026;13.752;2023-06-10T04:24:01;19.38;;;16.58;;
27489;SDS011;14925;51.026;13.752;2023-06-10T04:26:27;19.23;;;15.85;;
27489;SDS011;14925;51.026;13.752;2023-06-10T04:28:52;18.27;;;16.42;;
27489;SDS011;14925;51.026;13.752;2023-06-10T04:31:18;19.88;;;15.93;;
27489;SDS011;14925;51.026;13.752;2023-06-10T04:33:44;17.17;;;15.35;;
27489;SDS011;14925;51.026;13.752;2023-06-10T04:36:10;21.10;;;16.40;;
27489;SDS011;14925;51.026;13.752;2023-06-10T04:38:35;15.63;;;13.30;;
27489;SDS011;14925;51.026;13.752;2023-06-10T04:41:01;18.15;;;15.02;;
27489;SDS011;14925;51.026;13.752;2023-06-10T04:43:26;14.93;;;12.43;;
27489;SDS011;14925;51.026;13.752;2023-06-10T04:45:53;17.00;;;13.27;;
27489;SDS011;14925;51.026;13.752;2023-06-10T04:48:19;15.88;;;12.98;;
27489;SDS011;14925;51.026;13.752;2023-06-10T04:50:44;15.15;;;11.90;;
27489;SDS011;14925;51.026;13.752;2023-06-10T04:53:10;14.02;;;11.48;;
27489;SDS011;14925;51.026;13.752;2023-06-10T04:55:35;17.00;;;10.70;;
27489;SDS011;14925;51.026;13.752;2023-06-10T04:58:01;13.88;;;10.70;;
27489;SDS011;14925;51.026;13.752;2023-06-10T05:00:26;14.43;;;11.40;;
27489;SDS011;14925;51.026;13.752;2023-06-10T05:02:54;12.30;;;9.52;;
27489;SDS011;14925;51.026;13.752;2023-06-10T05:05:21;13.02;;;10.13;;
27489;SDS011;14925;51.026;13.752;2023-06-10T05:07:46;12.52;;;10.30;;
27489;SDS011;14925;51.026;13.752;2023-06-10T05:10:12;12.40;;;10.10;;
27489;SDS011;14925;51.026;13.752;2023-06-10T05:12:38;16.65;;;10.00;;
27489;SDS011;14925;51.026;13.752;2023-06-10T05:15:04;12.88;;;10.48;;
27489;SDS011;14925;51.026;13.752;2023-06-10T05:17:30;15.80;;;10.13;;
27489;SDS011;14925;51.026;13.752;2023-06-10T05:19:58;12.27;;;9.88;;
27489;SDS011;14925;51.026;13.752;2023-06-10T05:22:24;10.05;;;9.02;;
27489;SDS011;14925;51.026;13.752;2023-06-10T05:24:50;12.45;;;9.38;;
27489;SDS011;14925;51.026;13.752;2023-06-10T05:27:16;13.77;;;9.38;;
27489;SDS011;14925;51.026;13.752;2023-06-10T05:29:41;13.27;;;9.10;;
27489;SDS011;14925;51.026;13.752;2023-06-10T05:32:07;14.85;;;9.15;;
27489;SDS011;14925;51.026;13.752;2023-06-10T05:34:33;13.65;;;9.68;;
27489;SDS011;14925;51.026;13.752;2023-06-10T05:36:58;11.65;;;9.73;;
27489;SDS011;14925;51.026;13.752;2023-06-10T05:39:24;13.65;;;10.00;;
27489;SDS011;14925;51.026;13.752;2023-06-10T05:41:49;11.75;;;9.88;;
27489;SDS011;14925;51.026;13.752;2023-06-10T05:44:14;14.20;;;9.55;;
27489;SDS011;14925;51.026;13.752;2023-06-10T05:46:40;12.98;;;9.55;;
27489;SDS011;14925;51.026;13.752;2023-06-10T05:49:05;13.25;;;10.00;;
27489;SDS011;14925;51.026;13.752;2023-06-10T05:51:31;13.35;;;9.63;;
27489;SDS011;14925;51.026;13.752;2023-06-10T05:53:56;14.98;;;9.82;;
27489;SDS011;14925;51.026;13.752;2023-06-10T05:56:21;15.10;;;9.50;;
27489;SDS011;14925;51.026;13.752;2023-06-10T05:58:47;12.02;;;8.85;;
27489;SDS011;14925;51.026;13.752;2023-06-10T06:01:13;12.32;;;8.73;;
27489;SDS011;14925;51.026;13.752;2023-06-10T06:03:39;10.35;;;8.07;;
27489;SDS011;14925;51.026;13.752;2023-06-10T06:06:04;10.45;;;8.25;;
27489;SDS011;14925;51.026;13.752;2023-06-10T06:08:30;9.38;;;7.38;;
27489;SDS011;14925;51.026;13.752;2023-06-10T06:10:55;8.52;;;6.60;;
27489;SDS011;14925;51.026;13.752;2023-06-10T06:13:21;13.38;;;6.50;;
27489;SDS011;14925;51.026;13.752;2023-06-10T06:15:46;8.00;;;5.75;;
27489;SDS011;14925;51.026;13.752;2023-06-10T06:18:12;7.90;;;5.78;;
27489;SDS011;14925;51.026;13.752;2023-06-10T06:20:37;7.90;;;5.43;;
27489;SDS011;14925;51.026;13.752;2023-06-10T06:23:02;7.68;;;6.13;;
27489;SDS011;14925;51.026;13.752;2023-06-10T06:25:28;7.03;;;6.32;;
27489;SDS011;14925;51.026;13.752;2023-06-10T06:27:53;9.02;;;6.28;;
27489;SDS011;14925;51.026;13.752;2023-06-10T06:30:21;7.95;;;6.53;;
27489;SDS011;14925;51.026;13.752;2023-06-10T06:32:50;9.00;;;6.15;;
27489;SDS011;14925;51.026;13.752;2023-06-10T06:35:16;8.35;;;6.13;;
27489;SDS011;14925;51.026;13.752;2023-06-10T06:37:42;6.97;;;6.07;;
27489;SDS011;14925;51.026;13.752;2023-06-10T06:40:10;8.00;;;5.53;;
27489;SDS011;14925;51.026;13.752;2023-06-10T06:42:36;10.60;;;6.38;;
27489;SDS011;14925;51.026;13.752;2023-06-10T06:45:01;7.88;;;6.00;;
27489;SDS011;14925;51.026;13.752;2023-06-10T06:47:27;8.52;;;6.30;;
27489;SDS011;14925;51.026;13.752;2023-06-10T06:49:55;10.30;;;7.55;;
27489;SDS011;14925;51.026;13.752;2023-06-10T06:52:21;7.70;;;6.82;;
27489;SDS011;14925;51.026;13.752;2023-06-10T06:54:47;7.60;;;6.40;;
27489;SDS011;14925;51.026;13.752;2023-06-10T06:57:12;8.30;;;6.88;;
27489;SDS011;14925;51.026;13.752;2023-06-10T06:59:38;11.85;;;7.15;;
27489;SDS011;14925;51.026;13.752;2023-06-10T07:02:03;10.98;;;6.80;;
27489;SDS011;14925;51.026;13.752;2023-06-10T07:04:29;9.57;;;7.25;;
27489;SDS011;14925;51.026;13.752;2023-06-10T07:06:55;9.80;;;6.63;;
27489;SDS011;14925;51.026;13.752;2023-06-10T07:09:20;10.38;;;6.85;;
27489;SDS011;14925;51.026;13.752;2023-06-10T07:11:46;7.65;;;6.38;;
27489;SDS011;14925;51.026;13.752;2023-06-10T07:14:11;10.93;;;6.90;;
27489;SDS011;14925;51.026;13.752;2023-06-10T07:16:36;8.82;;;5.90;;
27489;SDS011;14925;51.026;13.752;2023-06-10T07:19:02;7.45;;;5.63;;
27489;SDS011;14925;51.026;13.752;2023-06-10T07:21:27;7.63;;;6.35;;
27489;SDS011;14925;51.026;13.752;2023-06-10T07:23:54;7.15;;;6.00;;
27489;SDS011;14925;51.026;13.752;2023-06-10T07:26:21;7.40;;;6.25;;
27489;SDS011;14925;51.026;13.752;2023-06-10T07:28:47;10.18;;;5.85;;
27489;SDS011;14925;51.026;13.752;2023-06-10T07:31:12;6.40;;;5.57;;
27489;SDS011;14925;51.026;13.752;2023-06-10T07:33:38;9.27;;;6.40;;
27489;SDS011;14925;51.026;13.752;2023-06-10T07:36:09;8.40;;;6.40;;
27489;SDS011;14925;51.026;13.752;2023-06-10T07:38:35;9.80;;;6.38;;
27489;SDS011;14925;51.026;13.752;2023-06-10T07:41:01;7.25;;;5.75;;
27489;SDS011;14925;51.026;13.752;2023-06-10T07:43:26;6.78;;;6.18;;
27489;SDS011;14925;51.026;13.752;2023-06-10T07:45:51;8.75;;;5.80;;
27489;SDS011;14925;51.026;13.752;2023-06-10T07:48:17;10.38;;;5.97;;
27489;SDS011;14925;51.026;13.752;2023-06-10T07:50:43;8.80;;;6.18;;
27489;SDS011;14925;51.026;13.752;2023-06-10T07:53:08;9.98;;;5.93;;
27489;SDS011;14925;51.026;13.752;2023-06-10T07:55:34;8.02;;;6.28;;
27489;SDS011;14925;51.026;13.752;2023-06-10T07:57:59;7.90;;;6.60;;
27489;SDS011;14925;51.026;13.752;2023-06-10T08:00:24;8.48;;;6.13;;
27489;SDS011;14925;51.026;13.752;2023-06-10T08:02:50;9.30;;;6.65;;
27489;SDS011;14925;51.026;13.752;2023-06-10T08:05:15;9.43;;;6.00;;
27489;SDS011;14925;51.026;13.752;2023-06-10T08:07:41;8.35;;;6.40;;
27489;SDS011;14925;51.026;13.752;2023-06-10T08:10:07;9.43;;;6.25;;
27489;SDS011;14925;51.026;13.752;2023-06-10T08:12:33;6.88;;;6.18;;
27489;SDS011;14925;51.026;13.752;2023-06-10T08:14:58;9.93;;;6.57;;
27489;SDS011;14925;51.026;13.752;2023-06-10T08:17:27;7.30;;;6.03;;
27489;SDS011;14925;51.026;13.752;2023-06-10T08:19:55;8.60;;;5.80;;
27489;SDS011;14925;51.026;13.752;2023-06-10T08:22:20;8.15;;;6.40;;
27489;SDS011;14925;51.026;13.752;2023-06-10T08:24:49;8.73;;;5.82;;
27489;SDS011;14925;51.026;13.752;2023-06-10T08:27:14;6.85;;;5.68;;
27489;SDS011;14925;51.026;13.752;2023-06-10T08:29:40;6.63;;;5.55;;
27489;SDS011;14925;51.026;13.752;2023-06-10T08:32:08;9.50;;;6.28;;
27489;SDS011;14925;51.026;13.752;2023-06-10T08:34:36;8.02;;;6.25;;
27489;SDS011;14925;51.026;13.752;2023-06-10T08:37:02;10.05;;;5.90;;
27489;SDS011;14925;51.026;13.752;2023-06-10T08:39:28;6.28;;;5.68;;
27489;SDS011;14925;51.026;13.752;2023-06-10T08:42:04;6.88;;;5.03;;
27489;SDS011;14925;51.026;13.752;2023-06-10T08:44:58;7.10;;;5.80;;
27489;SDS011;14925;51.026;13.752;2023-06-10T08:47:26;13.65;;;6.32;;
27489;SDS011;14925;51.026;13.752;2023-06-10T08:49:57;8.75;;;5.95;;
27489;SDS011;14925;51.026;13.752;2023-06-10T08:52:28;6.82;;;5.80;;
27489;SDS011;14925;51.026;13.752;2023-06-10T08:55:05;9.20;;;5.88;;
27489;SDS011;14925;51.026;13.752;2023-06-10T08:57:37;8.45;;;6.53;;
27489;SDS011;14925;51.026;13.752;2023-06-10T09:00:03;10.27;;;6.15;;
27489;SDS011;14925;51.026;13.752;2023-06-10T09:02:29;7.05;;;6.13;;
27489;SDS011;14925;51.026;13.752;2023-06-10T09:04:55;8.20;;;6.40;;
27489;SDS011;14925;51.026;13.752;2023-06-10T09:07:24;7.32;;;5.90;;
27489;SDS011;14925;51.026;13.752;2023-06-10T09:09:50;7.03;;;6.30;;
27489;SDS011;14925;51.026;13.752;2023-06-10T09:12:18;8.40;;;6.45;;
27489;SDS011;14925;51.026;13.752;2023-06-10T09:14:44;9.55;;;6.13;;
27489;SDS011;14925;51.026;13.752;2023-06-10T09:17:10;8.93;;;6.40;;
27489;SDS011;14925;51.026;13.752;2023-06-10T09:19:35;9.30;;;6.80;;
27489;SDS011;14925;51.026;13.752;2023-06-10T09:22:02;9.40;;;6.75;;
27489;SDS011;14925;51.026;13.752;2023-06-10T09:24:27;8.50;;;6.30;;
27489;SDS011;14925;51.026;13.752;2023-06-10T09:27:06;8.93;;;6.28;;
27489;SDS011;14925;51.026;13.752;2023-06-10T09:29:45;8.40;;;6.18;;
27489;SDS011;14925;51.026;13.752;2023-06-10T09:32:12;8.25;;;6.35;;
27489;SDS011;14925;51.026;13.752;2023-06-10T09:34:37;10.48;;;6.47;;
27489;SDS011;14925;51.026;13.752;2023-06-10T09:37:03;8.88;;;6.07;;
27489;SDS011;14925;51.026;13.752;2023-06-10T09:39:29;11.27;;;6.78;;
27489;SDS011;14925;51.026;13.752;2023-06-10T09:41:55;6.80;;;6.00;;
27489;SDS011;14925;51.026;13.752;2023-06-10T09:44:23;9.68;;;6.22;;
27489;SDS011;14925;51.026;13.752;2023-06-10T09:46:50;7.15;;;6.25;;
27489;SDS011;14925;51.026;13.752;2023-06-10T09:49:16;9.40;;;6.68;;
27489;SDS011;14925;51.026;13.752;2023-06-10T09:51:54;9.07;;;6.63;;
27489;SDS011;14925;51.026;13.752;2023-06-10T09:54:20;7.78;;;5.90;;
27489;SDS011;14925;51.026;13.752;2023-06-10T09:56:50;6.97;;;6.20;;
27489;SDS011;14925;51.026;13.752;2023-06-10T09:59:29;7.03;;;5.90;;
27489;SDS011;14925;51.026;13.752;2023-06-10T10:01:59;11.15;;;5.90;;
27489;SDS011;14925;51.026;13.752;2023-06-10T10:04:25;9.63;;;6.18;;
27489;SDS011;14925;51.026;13.752;2023-06-10T10:06:51;9.52;;;6.47;;
27489;SDS011;14925;51.026;13.752;2023-06-10T10:09:17;6.75;;;5.90;;
27489;SDS011;14925;51.026;13.752;2023-06-10T10:11:46;12.40;;;6.00;;
27489;SDS011;14925;51.026;13.752;2023-06-10T10:14:12;9.02;;;6.45;;
27489;SDS011;14925;51.026;13.752;2023-06-10T10:16:40;6.97;;;5.68;;
27489;SDS011;14925;51.026;13.752;2023-06-10T10:19:16;7.05;;;5.55;;
27489;SDS011;14925;51.026;13.752;2023-06-10T10:21:50;8.25;;;6.05;;
27489;SDS011;14925;51.026;13.752;2023-06-10T10:24:20;7.43;;;5.65;;
27489;SDS011;14925;51.026;13.752;2023-06-10T10:26:49;12.80;;;6.00;;
27489;SDS011;14925;51.026;13.752;2023-06-10T10:29:23;8.60;;;5.85;;
27489;SDS011;14925;51.026;13.752;2023-06-10T10:31:50;8.77;;;6.40;;
27489;SDS011;14925;51.026;13.752;2023-06-10T10:34:19;9.18;;;5.82;;
27489;SDS011;14925;51.026;13.752;2023-06-10T10:36:51;10.93;;;5.38;;
27489;SDS011;14925;51.026;13.752;2023-06-10T10:39:16;9.23;;;5.80;;
27489;SDS011;14925;51.026;13.752;2023-06-10T10:41:42;6.50;;;5.80;;
27489;SDS011;14925;51.026;13.752;2023-06-10T10:44:08;12.10;;;5.80;;
27489;SDS011;14925;51.026;13.752;2023-06-10T10:46:44;7.65;;;5.32;;
27489;SDS011;14925;51.026;13.752;2023-06-10T10:49:17;8.95;;;5.15;;
27489;SDS011;14925;51.026;13.752;2023-06-10T10:54:31;11.55;;;5.78;;
27489;SDS011;14925;51.026;13.752;2023-06-10T11:02:32;8.40;;;5.15;;
27489;SDS011;14925;51.026;13.752;2023-06-10T11:04:59;6.88;;;4.80;;
27489;SDS011;14925;51.026;13.752;2023-06-10T11:07:25;7.43;;;5.20;;
27489;SDS011;14925;51.026;13.752;2023-06-10T11:10:00;6.28;;;4.95;;
27489;SDS011;14925;51.026;13.752;2023-06-10T11:15:32;7.40;;;5.20;;
27489;SDS011;14925;51.026;13.752;2023-06-10T11:18:06;7.28;;;4.60;;
27489;SDS011;14925;51.026;13.752;2023-06-10T11:20:44;8.88;;;4.90;;
27489;SDS011;14925;51.026;13.752;2023-06-10T11:26:09;14.32;;;5.88;;
27489;SDS011;14925;51.026;13.752;2023-06-10T11:28:38;8.15;;;5.30;;
27489;SDS011;14925;51.026;13.752;2023-06-10T11:31:04;8.80;;;5.60;;
27489;SDS011;14925;51.026;13.752;2023-06-10T11:33:31;6.70;;;5.53;;
27489;SDS011;14925;51.026;13.752;2023-06-10T11:35:56;9.57;;;5.57;;
27489;SDS011;14925;51.026;13.752;2023-06-10T11:38:23;9.85;;;5.40;;
27489;SDS011;14925;51.026;13.752;2023-06-10T11:40:49;9.60;;;5.25;;
27489;SDS011;14925;51.026;13.752;2023-06-10T11:43:18;8.32;;;5.65;;
27489;SDS011;14925;51.026;13.752;2023-06-10T11:45:43;9.60;;;5.53;;
27489;SDS011;14925;51.026;13.752;2023-06-10T11:48:09;8.77;;;5.40;;
27489;SDS011;14925;51.026;13.752;2023-06-10T11:50:35;7.60;;;5.25;;
27489;SDS011;14925;51.026;13.752;2023-06-10T11:53:01;9.77;;;5.82;;
27489;SDS011;14925;51.026;13.752;2023-06-10T11:55:43;7.45;;;5.20;;
27489;SDS011;14925;51.026;13.752;2023-06-10T12:00:45;6.22;;;5.10;;
27489;SDS011;14925;51.026;13.752;2023-06-10T12:03:14;9.93;;;4.88;;
27489;SDS011;14925;51.026;13.752;2023-06-10T12:05:39;7.40;;;4.93;;
27489;SDS011;14925;51.026;13.752;2023-06-10T12:08:08;6.53;;;4.97;;
27489;SDS011;14925;51.026;13.752;2023-06-10T12:10:39;7.65;;;4.72;;
27489;SDS011;14925;51.026;13.752;2023-06-10T12:13:05;12.50;;;5.18;;
27489;SDS011;14925;51.026;13.752;2023-06-10T12:15:31;6.15;;;4.78;;
27489;SDS011;14925;51.026;13.752;2023-06-10T12:17:57;11.77;;;4.82;;
27489;SDS011;14925;51.026;13.752;2023-06-10T12:20:26;7.00;;;5.13;;
27489;SDS011;14925;51.026;13.752;2023-06-10T12:22:53;6.10;;;4.90;;
27489;SDS011;14925;51.026;13.752;2023-06-10T12:25:23;7.75;;;5.25;;
27489;SDS011;14925;51.026;13.752;2023-06-10T12:27:53;10.35;;;5.20;;
27489;SDS011;14925;51.026;13.752;2023-06-10T12:30:23;8.15;;;4.97;;
27489;SDS011;14925;51.026;13.752;2023-06-10T12:32:49;7.15;;;5.03;;
27489;SDS011;14925;51.026;13.752;2023-06-10T12:35:16;9.38;;;4.90;;
27489;SDS011;14925;51.026;13.752;2023-06-10T12:37:43;6.78;;;4.45;;
27489;SDS011;14925;51.026;13.752;2023-06-10T12:40:25;7.38;;;4.65;;
27489;SDS011;14925;51.026;13.752;2023-06-10T12:42:57;10.88;;;4.70;;
27489;SDS011;14925;51.026;13.752;2023-06-10T12:45:26;7.88;;;4.68;;
27489;SDS011;14925;51.026;13.752;2023-06-10T12:48:08;5.78;;;4.72;;
27489;SDS011;14925;51.026;13.752;2023-06-10T12:50:35;6.65;;;4.65;;
27489;SDS011;14925;51.026;13.752;2023-06-10T12:53:02;8.07;;;4.80;;
27489;SDS011;14925;51.026;13.752;2023-06-10T12:55:28;7.47;;;4.85;;
27489;SDS011;14925;51.026;13.752;2023-06-10T12:57:53;7.28;;;5.25;;
27489;SDS011;14925;51.026;13.752;2023-06-10T13:00:20;10.75;;;5.00;;
27489;SDS011;14925;51.026;13.752;2023-06-10T13:02:45;8.05;;;5.00;;
27489;SDS011;14925;51.026;13.752;2023-06-10T13:05:11;6.30;;;4.93;;
27489;SDS011;14925;51.026;13.752;2023-06-10T13:07:36;8.63;;;5.00;;
27489;SDS011;14925;51.026;13.752;2023-06-10T13:10:02;9.80;;;5.07;;
27489;SDS011;14925;51.026;13.752;2023-06-10T13:12:27;13.20;;;4.72;;
27489;SDS011;14925;51.026;13.752;2023-06-10T13:14:54;12.43;;;4.82;;
27489;SDS011;14925;51.026;13.752;2023-06-10T13:17:20;9.15;;;4.95;;
27489;SDS011;14925;51.026;13.752;2023-06-10T13:19:45;9.77;;;5.20;;
27489;SDS011;14925;51.026;13.752;2023-06-10T13:22:11;10.68;;;5.00;;
27489;SDS011;14925;51.026;13.752;2023-06-10T13:24:38;7.18;;;4.32;;
27489;SDS011;14925;51.026;13.752;2023-06-10T13:27:04;10.68;;;4.50;;
27489;SDS011;14925;51.026;13.752;2023-06-10T13:29:31;5.78;;;4.60;;
27489;SDS011;14925;51.026;13.752;2023-06-10T13:32:00;7.13;;;4.43;;
27489;SDS011;14925;51.026;13.752;2023-06-10T13:34:25;8.50;;;4.95;;
27489;SDS011;14925;51.026;13.752;2023-06-10T13:36:50;8.05;;;4.72;;
27489;SDS011;14925;51.026;13.752;2023-06-10T13:39:16;5.60;;;4.20;;
27489;SDS011;14925;51.026;13.752;2023-06-10T13:41:41;7.07;;;4.50;;
27489;SDS011;14925;51.026;13.752;2023-06-10T13:44:07;8.55;;;4.15;;
27489;SDS011;14925;51.026;13.752;2023-06-10T13:46:32;5.93;;;4.38;;
27489;SDS011;14925;51.026;13.752;2023-06-10T13:48:58;8.38;;;4.28;;
27489;SDS011;14925;51.026;13.752;2023-06-10T13:51:23;6.53;;;3.80;;
27489;SDS011;14925;51.026;13.752;2023-06-10T13:53:49;7.22;;;4.10;;
27489;SDS011;14925;51.026;13.752;2023-06-10T13:56:15;6.55;;;4.03;;
27489;SDS011;14925;51.026;13.752;2023-06-10T13:58:41;5.97;;;3.75;;
27489;SDS011;14925;51.026;13.752;2023-06-10T14:01:07;7.03;;;3.78;;
27489;SDS011;14925;51.026;13.752;2023-06-10T14:03:33;5.50;;;3.63;;
27489;SDS011;14925;51.026;13.752;2023-06-10T14:05:58;5.80;;;4.13;;
27489;SDS011;14925;51.026;13.752;2023-06-10T14:08:23;5.95;;;4.20;;
27489;SDS011;14925;51.026;13.752;2023-06-10T14:10:52;7.18;;;4.15;;
27489;SDS011;14925;51.026;13.752;2023-06-10T14:13:17;5.97;;;3.88;;
27489;SDS011;14925;51.026;13.752;2023-06-10T14:15:43;6.50;;;4.07;;
27489;SDS011;14925;51.026;13.752;2023-06-10T14:18:09;9.32;;;4.00;;
27489;SDS011;14925;51.026;13.752;2023-06-10T14:20:37;6.80;;;4.15;;
27489;SDS011;14925;51.026;13.752;2023-06-10T14:23:03;7.25;;;4.18;;
27489;SDS011;14925;51.026;13.752;2023-06-10T14:25:28;5.15;;;3.97;;
27489;SDS011;14925;51.026;13.752;2023-06-10T14:27:57;6.25;;;3.90;;
27489;SDS011;14925;51.026;13.752;2023-06-10T14:30:23;9.30;;;4.45;;
27489;SDS011;14925;51.026;13.752;2023-06-10T14:32:48;5.85;;;4.00;;
27489;SDS011;14925;51.026;13.752;2023-06-10T14:35:13;6.40;;;4.03;;
27489;SDS011;14925;51.026;13.752;2023-06-10T14:37:41;6.97;;;3.90;;
27489;SDS011;14925;51.026;13.752;2023-06-10T14:40:07;5.93;;;3.60;;
27489;SDS011;14925;51.026;13.752;2023-06-10T14:42:34;6.75;;;4.20;;
27489;SDS011;14925;51.026;13.752;2023-06-10T14:45:00;5.35;;;3.80;;
27489;SDS011;14925;51.026;13.752;2023-06-10T14:47:25;5.45;;;4.05;;